Time;durP1;ratioP1;P1;durP2;ratioP2;P2;SDS_P1;SDS_P2;PMS_P1;PMS_P2;Temp;Humidity;BMP_temperature;BMP_pressure;BME280_temperature;BME280_humidity;BME280_pressure;Samples;Min_cycle;Max_cycle;Signal;HPM_P1;HPM_P2
2024/01/11 00:02:01;;;;;;;22.27;13.70;;;;;;;4.43;91.23;99395.25;5080685;28;20024;-68
2024/01/11 00:04:26;;;;;;;23.02;14.38;;;;;;;4.36;91.47;99386.19;5072163;28;20024;-68
2024/01/11 00:06:52;;;;;;;24.50;14.73;;;;;;;4.53;91.33;99387.84;5072477;28;20032;-66
2024/01/11 00:09:17;;;;;;;22.80;14.70;;;;;;;4.50;90.83;99381.09;5061652;28;20108;-68
2024/01/11 00:11:47;;;;;;;22.33;14.07;;;;;;;4.48;91.01;99387.25;5055779;28;20131;-67
2024/01/11 00:14:15;;;;;;;25.17;15.77;;;;;;;4.09;92.13;99337.09;5054858;28;20058;-68
2024/01/11 00:16:41;;;;;;;24.27;15.20;;;;;;;4.28;91.24;99394.34;5084843;28;20020;-67
2024/01/11 00:19:06;;;;;;;22.38;14.25;;;;;;;4.45;91.19;99387.44;5080469;28;20030;-68
2024/01/11 00:21:32;;;;;;;21.30;14.00;;;;;;;4.42;91.05;99383.28;5052630;28;20911;-67
2024/01/11 00:23:59;;;;;;;22.23;14.00;;;;;;;4.42;91.44;99373.81;5057189;28;20024;-67
2024/01/11 00:26:25;;;;;;;20.15;13.32;;;;;;;4.20;91.35;99342.47;5056856;28;20035;-69
2024/01/11 00:28:50;;;;;;;25.45;14.93;;;;;;;4.46;90.74;99365.91;5069445;28;20356;-68
2024/01/11 00:31:15;;;;;;;24.98;15.18;;;;;;;4.54;90.64;99377.41;5085481;28;20431;-69
2024/01/11 00:33:43;;;;;;;25.73;14.77;;;;;;;4.36;89.32;99370.75;5067815;28;20035;-68
2024/01/11 00:36:19;;;;;;;24.60;15.02;;;;;;;4.43;90.95;99359.19;5080224;28;20027;-69
2024/01/11 00:38:45;;;;;;;23.42;14.98;;;;;;;4.48;91.66;99369.25;5075743;28;20035;-69
2024/01/11 00:41:11;;;;;;;22.67;14.70;;;;;;;4.51;91.18;99372.47;5062643;28;20477;-68
2024/01/11 00:43:36;;;;;;;22.50;14.55;;;;;;;4.57;91.50;99364.38;5065077;28;20080;-68
2024/01/11 00:46:01;;;;;;;23.25;14.48;;;;;;;4.33;91.07;99315.13;5057276;28;20062;-68
2024/01/11 00:48:29;;;;;;;21.20;14.10;;;;;;;4.31;91.80;99306.66;5057840;28;20032;-69
2024/01/11 00:50:57;;;;;;;22.75;14.15;;;;;;;4.42;92.02;99319.72;5056961;28;20580;-68
2024/01/11 00:53:22;;;;;;;21.23;14.15;;;;;;;4.76;93.38;99371.88;5061629;28;20730;-68
2024/01/11 00:55:47;;;;;;;22.27;14.60;;;;;;;4.70;90.98;99367.06;5052138;28;20035;-68
2024/01/11 00:58:15;;;;;;;21.00;14.70;;;;;;;4.36;91.09;99320.09;5078286;28;20820;-68
2024/01/11 01:00:43;;;;;;;25.45;15.75;;;;;;;4.58;91.02;99372.94;5059088;28;20110;-68
2024/01/11 01:03:08;;;;;;;27.00;16.02;;;;;;;4.58;91.44;99360.03;5055775;28;20389;-67
2024/01/11 01:05:33;;;;;;;24.02;14.82;;;;;;;4.56;92.36;99360.16;5056880;28;20056;-67
2024/01/11 01:07:59;;;;;;;23.73;14.73;;;;;;;4.31;92.49;99298.06;5057123;28;20036;-68
2024/01/11 01:10:24;;;;;;;22.35;15.15;;;;;;;4.46;92.68;99319.56;5074401;28;20518;-68
2024/01/11 01:12:50;;;;;;;23.77;14.73;;;;;;;4.72;92.70;99352.34;5049182;28;20064;-67
2024/01/11 01:15:15;;;;;;;22.83;14.90;;;;;;;4.68;92.52;99356.03;5057484;28;20088;-68
2024/01/11 01:17:41;;;;;;;23.00;14.63;;;;;;;4.67;93.77;99356.13;5047028;28;20545;-68
2024/01/11 01:20:07;;;;;;;24.48;15.10;;;;;;;4.63;92.87;99347.75;5065163;28;20096;-68
2024/01/11 01:22:34;;;;;;;25.15;15.02;;;;;;;4.59;91.96;99361.72;5066056;28;20108;-68
2024/01/11 01:25:02;;;;;;;20.90;14.43;;;;;;;4.59;93.33;99364.28;5073293;27;20748;-68
2024/01/11 01:27:28;;;;;;;23.80;14.90;;;;;;;4.31;93.63;99298.06;5095756;28;20487;-68
2024/01/11 01:29:53;;;;;;;22.42;15.45;;;;;;;4.60;93.00;99347.94;5053469;28;20023;-68
2024/01/11 01:32:19;;;;;;;26.17;15.15;;;;;;;4.66;94.22;99354.47;5071096;28;20050;-67
2024/01/11 01:34:47;;;;;;;22.23;14.82;;;;;;;4.69;94.28;99356.84;5050388;28;20467;-68
2024/01/11 01:37:12;;;;;;;23.52;14.95;;;;;;;4.39;94.88;99316.50;5090130;27;20031;-69
2024/01/11 01:39:38;;;;;;;22.33;14.90;;;;;;;4.67;95.42;99356.94;5058145;28;20031;-69
2024/01/11 01:42:04;;;;;;;25.80;15.88;;;;;;;4.70;95.68;99361.91;5069430;28;20055;-69
2024/01/11 01:44:30;;;;;;;24.25;15.48;;;;;;;4.68;95.42;99363.75;5060558;28;20019;-68
2024/01/11 01:46:58;;;;;;;26.15;15.15;;;;;;;4.64;96.26;99346.84;5059733;28;20043;-67
2024/01/11 01:49:23;;;;;;;23.10;14.90;;;;;;;4.65;94.99;99356.19;5061226;28;20016;-67
2024/01/11 01:51:49;;;;;;;24.48;16.00;;;;;;;4.59;94.92;99341.94;5055429;28;20526;-67
2024/01/11 01:54:15;;;;;;;23.42;14.90;;;;;;;4.26;94.32;99303.50;5095237;28;21206;-67
2024/01/11 01:56:40;;;;;;;25.08;14.98;;;;;;;4.22;95.70;99310.56;5073603;28;21251;-68
2024/01/11 01:59:06;;;;;;;22.55;14.13;;;;;;;4.55;96.21;99348.19;5060873;28;20024;-68
2024/01/11 02:01:32;;;;;;;23.58;14.63;;;;;;;4.58;96.73;99362.63;5074039;27;20031;-68
2024/01/11 02:03:58;;;;;;;22.67;14.18;;;;;;;4.50;97.32;99350.19;5060698;28;20111;-68
2024/01/11 02:06:25;;;;;;;22.55;14.55;;;;;;;4.46;98.29;99338.41;5058465;28;20128;-67
2024/01/11 02:08:55;;;;;;;25.02;14.55;;;;;;;4.49;98.42;99350.28;5075663;28;20020;-67
2024/01/11 02:11:23;;;;;;;23.05;14.75;;;;;;;4.45;97.53;99357.34;5062210;28;20023;-68
2024/01/11 02:13:50;;;;;;;23.48;14.43;;;;;;;4.37;97.15;99350.06;5057036;28;20053;-67
2024/01/11 02:16:16;;;;;;;23.00;14.73;;;;;;;4.33;96.92;99356.31;5053400;28;20055;-68
2024/01/11 02:18:43;;;;;;;23.67;14.40;;;;;;;4.31;97.85;99357.28;5057688;28;20149;-68
2024/01/11 02:21:09;;;;;;;23.95;14.85;;;;;;;4.14;97.81;99351.34;5060898;28;20015;-69
2024/01/11 02:23:41;;;;;;;22.67;14.10;;;;;;;4.14;98.35;99360.81;5077418;28;20084;-66
2024/01/11 02:26:06;;;;;;;23.67;15.13;;;;;;;3.88;98.50;99333.97;5059890;28;20140;-69
2024/01/11 02:28:32;;;;;;;24.27;15.15;;;;;;;3.60;99.16;99296.91;5075788;27;20627;-69
2024/01/11 02:31:00;;;;;;;23.00;14.25;;;;;;;3.97;99.85;99347.16;5075813;28;20089;-68
2024/01/11 02:33:25;;;;;;;22.70;13.00;;;;;;;3.96;100.00;99339.50;5083530;28;20028;-68
2024/01/11 02:35:51;;;;;;;22.08;13.95;;;;;;;4.04;99.19;99351.03;5073202;28;20022;-69
2024/01/11 02:38:19;;;;;;;22.88;14.90;;;;;;;3.89;99.86;99338.19;5061748;28;20097;-68
2024/01/11 02:40:49;;;;;;;25.90;15.32;;;;;;;3.87;100.00;99342.59;5052726;27;21484;-69
2024/01/11 02:43:17;;;;;;;24.23;14.15;;;;;;;3.94;100.00;99337.03;5060337;28;20032;-66
2024/01/11 02:45:42;;;;;;;21.48;14.07;;;;;;;3.88;100.00;99339.94;5054801;28;20236;-67
2024/01/11 02:48:07;;;;;;;22.10;14.70;;;;;;;3.82;100.00;99335.97;5079949;28;20036;-68
2024/01/11 02:50:35;;;;;;;26.25;15.15;;;;;;;3.80;100.00;99329.25;5069418;28;20498;-68
2024/01/11 02:53:03;;;;;;;25.27;14.85;;;;;;;3.71;100.00;99330.59;5060441;28;20036;-67
2024/01/11 02:55:31;;;;;;;25.92;15.82;;;;;;;3.60;100.00;99335.47;5073684;28;20030;-68
2024/01/11 02:57:56;;;;;;;23.40;14.88;;;;;;;3.32;100.00;99272.66;5066516;28;20036;-68
2024/01/11 03:00:21;;;;;;;25.88;14.93;;;;;;;3.57;100.00;99320.22;5064629;28;20155;-67
2024/01/11 03:02:47;;;;;;;25.20;14.65;;;;;;;3.55;100.00;99322.84;5053263;28;20019;-67
2024/01/11 03:05:12;;;;;;;23.70;14.93;;;;;;;3.44;100.00;99317.47;5072034;28;20103;-66
2024/01/11 03:07:40;;;;;;;25.60;15.48;;;;;;;3.44;100.00;99312.31;5058430;28;20760;-67
2024/01/11 03:10:06;;;;;;;24.65;15.18;;;;;;;3.40;100.00;99309.09;5062125;28;20150;-68
2024/01/11 03:12:31;;;;;;;26.75;15.68;;;;;;;3.47;100.00;99315.56;5078241;28;20760;-69
2024/01/11 03:14:59;;;;;;;24.85;15.77;;;;;;;3.49;100.00;99307.78;5049388;28;20042;-68
2024/01/11 03:17:24;;;;;;;23.45;14.45;;;;;;;3.48;100.00;99306.09;5070420;27;20122;-68
2024/01/11 03:19:50;;;;;;;23.50;15.02;;;;;;;3.43;100.00;99310.66;5057449;27;20093;-68
2024/01/11 03:22:17;;;;;;;24.02;13.73;;;;;;;3.34;100.00;99295.72;5059575;28;20103;-69
2024/01/11 03:24:45;;;;;;;22.98;14.23;;;;;;;3.42;100.00;99307.25;5071914;27;20028;-69
2024/01/11 03:27:10;;;;;;;25.08;15.10;;;;;;;3.41;100.00;99300.47;5073891;28;20085;-68
2024/01/11 03:29:36;;;;;;;24.50;15.02;;;;;;;3.35;100.00;99295.66;5076079;28;20031;-69
2024/01/11 03:32:04;;;;;;;26.73;14.85;;;;;;;2.91;100.00;99241.47;5072865;28;20451;-67
2024/01/11 03:34:29;;;;;;;24.80;13.82;;;;;;;3.28;100.00;99294.31;5052340;28;20039;-69
2024/01/11 03:36:54;;;;;;;22.13;14.40;;;;;;;3.19;100.00;99289.66;5070445;28;20023;-68
2024/01/11 03:39:20;;;;;;;22.02;14.43;;;;;;;3.21;100.00;99287.84;5058894;28;20016;-68
2024/01/11 03:41:47;;;;;;;24.25;14.20;;;;;;;3.25;100.00;99289.34;5070300;28;20063;-69
2024/01/11 03:44:13;;;;;;;23.13;14.07;;;;;;;3.18;100.00;99288.84;5075966;28;20811;-69
2024/01/11 03:46:41;;;;;;;23.65;13.90;;;;;;;2.99;100.00;99294.09;5077537;28;20134;-69
2024/01/11 03:49:07;;;;;;;22.63;13.43;;;;;;;2.99;100.00;99285.56;5048239;28;20610;-67
2024/01/11 03:51:33;;;;;;;24.33;13.98;;;;;;;3.00;100.00;99275.22;5054320;28;20501;-68
2024/01/11 03:53:58;;;;;;;21.33;13.40;;;;;;;2.84;100.00;99231.50;5046698;28;20016;-67
2024/01/11 03:56:29;;;;;;;20.83;12.68;;;;;;;2.75;100.00;99236.31;5069720;28;20285;-69
2024/01/11 03:58:56;;;;;;;23.75;13.82;;;;;;;2.97;100.00;99282.25;5054434;28;20176;-69
2024/01/11 04:01:22;;;;;;;22.92;14.07;;;;;;;2.91;100.00;99283.41;5060522;27;20023;-68
2024/01/11 04:03:49;;;;;;;21.67;13.95;;;;;;;2.88;100.00;99281.84;5057669;28;20066;-69
2024/01/11 04:06:22;;;;;;;23.02;13.32;;;;;;;2.84;100.00;99289.78;5058271;28;20028;-69
2024/01/11 04:08:48;;;;;;;23.90;13.32;;;;;;;2.71;100.00;99283.63;5069143;28;20186;-68
2024/01/11 04:11:13;;;;;;;22.90;13.45;;;;;;;2.67;100.00;99288.06;5059164;28;20066;-69
2024/01/11 04:13:39;;;;;;;23.85;13.38;;;;;;;2.63;100.00;99272.00;5077295;28;20812;-69
2024/01/11 04:16:06;;;;;;;21.77;12.98;;;;;;;2.57;100.00;99267.16;5063803;28;20031;-69
2024/01/11 04:18:34;;;;;;;22.17;13.55;;;;;;;2.36;100.00;99210.03;5057447;28;20038;-68
2024/01/11 04:20:59;;;;;;;23.73;14.85;;;;;;;2.60;100.00;99268.75;5058591;28;20035;-68
2024/01/11 04:23:29;;;;;;;24.05;14.88;;;;;;;2.68;100.00;99266.59;5054325;28;20191;-69
2024/01/11 04:25:57;;;;;;;23.00;13.80;;;;;;;2.74;100.00;99270.59;5057474;28;20043;-71
2024/01/11 04:28:22;;;;;;;23.73;14.18;;;;;;;2.30;100.00;99220.63;5054059;28;20019;-69
2024/01/11 04:30:48;;;;;;;23.73;14.73;;;;;;;2.31;100.00;99206.88;5056361;28;20080;-68
2024/01/11 04:33:15;;;;;;;23.25;14.70;;;;;;;2.65;100.00;99262.47;5054517;28;20028;-68
2024/01/11 04:35:43;;;;;;;23.40;14.20;;;;;;;2.61;100.00;99252.41;5072051;28;20038;-68
2024/01/11 04:38:09;;;;;;;23.98;15.02;;;;;;;2.26;100.00;99219.97;5054398;28;20035;-67
2024/01/11 04:40:34;;;;;;;24.98;14.88;;;;;;;2.60;100.00;99256.72;5053328;28;20034;-67
2024/01/11 04:43:02;;;;;;;23.85;14.55;;;;;;;2.57;100.00;99253.50;5066901;28;20031;-69
2024/01/11 04:45:30;;;;;;;23.10;14.18;;;;;;;2.55;100.00;99265.59;5075759;28;20038;-69
2024/01/11 04:47:55;;;;;;;24.77;14.73;;;;;;;2.23;100.00;99209.03;5055186;28;20176;-69
2024/01/11 04:50:23;;;;;;;26.08;15.13;;;;;;;2.47;100.00;99265.97;5061670;28;20044;-69
2024/01/11 04:52:49;;;;;;;23.50;13.82;;;;;;;2.54;100.00;99264.75;5051291;28;20035;-68
2024/01/11 04:55:14;;;;;;;22.13;13.95;;;;;;;2.40;100.00;99255.19;5065289;28;20024;-69
2024/01/11 04:57:39;;;;;;;26.33;14.68;;;;;;;2.40;100.00;99246.66;5057659;28;20038;-68
2024/01/11 05:00:05;;;;;;;22.60;14.32;;;;;;;2.21;100.00;99236.47;5080624;28;20025;-68
2024/01/11 05:02:31;;;;;;;26.75;15.32;;;;;;;2.39;100.00;99256.09;5071334;27;20883;-70
2024/01/11 05:04:58;;;;;;;23.58;15.93;;;;;;;2.33;100.00;99230.72;5080266;28;20032;-69
2024/01/11 05:07:24;;;;;;;23.52;14.95;;;;;;;2.43;100.00;99241.38;5059979;28;20023;-68
2024/01/11 05:09:49;;;;;;;23.42;15.05;;;;;;;2.43;100.00;99244.75;5064112;28;20031;-69
2024/01/11 05:12:16;;;;;;;22.90;14.60;;;;;;;2.11;100.00;99184.78;5075687;28;20534;-70
2024/01/11 05:14:41;;;;;;;22.75;14.07;;;;;;;2.30;100.00;99239.41;5057097;28;20027;-67
2024/01/11 05:17:09;;;;;;;22.35;14.95;;;;;;;2.05;100.00;99191.06;5051667;28;20032;-68
2024/01/11 05:19:34;;;;;;;24.98;14.93;;;;;;;2.38;100.00;99233.91;5069994;28;20097;-68
2024/01/11 05:22:05;;;;;;;23.83;15.68;;;;;;;2.37;100.00;99237.34;5082815;28;20031;-70
2024/01/11 05:24:31;;;;;;;24.25;15.23;;;;;;;2.08;100.00;99184.94;5072047;28;20128;-70
2024/01/11 05:26:59;;;;;;;22.15;14.27;;;;;;;2.29;100.00;99235.19;5059813;28;20472;-68
2024/01/11 05:29:27;;;;;;;24.33;15.05;;;;;;;2.34;100.00;99237.53;5079780;28;20410;-69
2024/01/11 05:31:52;;;;;;;22.98;14.48;;;;;;;2.30;100.00;99236.84;5057021;28;20034;-69
2024/01/11 05:34:17;;;;;;;22.35;13.80;;;;;;;2.34;100.00;99240.09;5095816;27;20031;-69
2024/01/11 05:36:50;;;;;;;23.10;14.75;;;;;;;2.26;100.00;99240.50;5058352;28;20026;-69
2024/01/11 05:39:15;;;;;;;22.75;14.65;;;;;;;2.29;100.00;99242.06;5065151;27;20031;-70
2024/01/11 05:41:44;;;;;;;24.65;15.25;;;;;;;2.19;100.00;99233.16;5058112;28;20032;-70
2024/01/11 05:44:10;;;;;;;27.10;16.13;;;;;;;2.17;100.00;99240.09;5054654;28;20478;-70
2024/01/11 05:46:37;;;;;;;27.00;15.75;;;;;;;1.79;100.00;99178.69;5059594;28;20028;-67
2024/01/11 05:49:03;;;;;;;25.27;14.18;;;;;;;2.15;100.00;99241.91;5077993;28;20904;-69
2024/01/11 05:51:29;;;;;;;23.35;14.82;;;;;;;1.76;100.00;99184.00;5064011;28;20036;-70
2024/01/11 05:53:56;;;;;;;27.60;16.10;;;;;;;2.14;100.00;99243.66;5059419;28;20046;-70
2024/01/11 05:56:25;;;;;;;25.73;15.38;;;;;;;2.10;100.00;99237.03;5087564;28;20574;-69
2024/01/11 05:58:50;;;;;;;23.25;15.98;;;;;;;2.05;100.00;99232.09;5056178;28;20107;-69
2024/01/11 06:01:15;;;;;;;24.73;15.20;;;;;;;2.08;100.00;99236.25;5053133;27;20031;-69
2024/01/11 06:03:43;;;;;;;24.38;15.02;;;;;;;2.11;100.00;99231.78;5069885;28;20036;-69
2024/01/11 06:06:09;;;;;;;25.65;14.90;;;;;;;2.10;100.00;99237.03;5068571;28;20038;-67
2024/01/11 06:08:34;;;;;;;24.05;14.82;;;;;;;2.08;100.00;99234.53;5062065;28;20087;-69
2024/01/11 06:10:59;;;;;;;23.50;14.63;;;;;;;1.96;100.00;99235.13;5055315;28;20786;-69
2024/01/11 06:13:25;;;;;;;26.08;15.52;;;;;;;2.15;100.00;99250.44;5072920;28;20079;-69
2024/01/11 06:15:54;;;;;;;25.48;15.25;;;;;;;2.13;100.00;99244.56;5062192;28;20028;-70
2024/01/11 06:18:22;;;;;;;22.90;14.23;;;;;;;2.13;100.00;99249.69;5074637;28;20035;-67
2024/01/11 06:20:47;;;;;;;24.88;14.90;;;;;;;2.15;100.00;99249.63;5058259;27;20038;-68
2024/01/11 06:23:12;;;;;;;22.73;14.82;;;;;;;2.07;100.00;99255.94;5075426;28;20123;-68
2024/01/11 06:25:40;;;;;;;24.30;14.77;;;;;;;2.02;100.00;99260.47;5078503;28;20723;-67
2024/01/11 06:28:08;;;;;;;28.92;16.10;;;;;;;2.05;100.00;99251.81;5058469;28;20055;-68
2024/01/11 06:30:33;;;;;;;25.83;14.70;;;;;;;1.95;100.00;99243.72;5061341;28;20032;-69
2024/01/11 06:32:58;;;;;;;24.90;14.68;;;;;;;2.07;100.00;99262.81;5051419;28;20034;-69
2024/01/11 06:35:29;;;;;;;23.75;15.10;;;;;;;1.64;100.00;99198.22;5074444;28;20028;-69
2024/01/11 06:37:59;;;;;;;26.17;15.38;;;;;;;1.95;100.00;99250.59;5078715;28;20028;-68
2024/01/11 06:40:24;;;;;;;26.45;15.48;;;;;;;2.02;100.00;99257.06;5055042;28;20137;-69
2024/01/11 06:42:49;;;;;;;26.98;15.50;;;;;;;2.04;100.00;99263.78;5061121;28;20034;-68
2024/01/11 06:45:18;;;;;;;32.83;18.20;;;;;;;2.00;100.00;99251.19;5055249;28;20035;-69
2024/01/11 06:47:47;;;;;;;56.60;28.57;;;;;;;2.04;100.00;99266.34;5073491;27;20031;-69
2024/01/11 06:50:12;;;;;;;74.07;35.05;;;;;;;2.05;100.00;99268.03;5059238;28;20278;-68
2024/01/11 06:52:40;;;;;;;86.47;39.78;;;;;;;1.97;100.00;99259.03;5055610;28;20039;-69
2024/01/11 06:55:06;;;;;;;72.65;36.83;;;;;;;2.00;100.00;99264.84;5054641;28;20118;-69
2024/01/11 06:57:31;;;;;;;63.13;30.42;;;;;;;2.02;100.00;99277.59;5059620;28;20036;-67
2024/01/11 07:00:02;;;;;;;42.47;21.77;;;;;;;2.06;100.00;99271.41;5061932;28;20023;-69
2024/01/11 07:02:27;;;;;;;49.42;25.77;;;;;;;2.05;100.00;99273.16;5060207;27;20035;-69
2024/01/11 07:04:55;;;;;;;45.35;26.20;;;;;;;2.00;100.00;99269.16;5076289;28;20042;-70
2024/01/11 07:07:20;;;;;;;48.97;30.65;;;;;;;1.92;100.00;99269.53;5054363;28;20759;-68
2024/01/11 07:09:45;;;;;;;41.78;26.30;;;;;;;1.96;100.00;99255.66;5059707;28;20020;-69
2024/01/11 07:12:11;;;;;;;40.42;25.60;;;;;;;2.00;100.00;99272.53;5076557;28;20059;-69
2024/01/11 07:14:36;;;;;;;33.88;19.52;;;;;;;1.92;100.00;99261.84;5061124;28;20066;-69
2024/01/11 07:17:09;;;;;;;31.67;18.40;;;;;;;2.00;100.00;99262.28;5052162;28;20043;-67
2024/01/11 07:19:37;;;;;;;32.47;20.60;;;;;;;2.06;100.00;99271.41;5062841;27;20033;-67
2024/01/11 07:22:02;;;;;;;42.75;28.67;;;;;;;1.99;100.00;99267.47;5077156;28;20073;-68
2024/01/11 07:24:37;;;;;;;39.15;27.83;;;;;;;1.94;100.00;99251.50;5072798;28;21391;-68
2024/01/11 07:27:06;;;;;;;33.80;22.88;;;;;;;1.89;100.00;99259.41;5051112;28;20032;-68
2024/01/11 07:29:32;;;;;;;37.40;23.20;;;;;;;1.98;100.00;99260.72;5052576;28;20031;-69
2024/01/11 07:31:58;;;;;;;35.55;20.92;;;;;;;1.90;100.00;99259.34;5063864;27;20035;-68
2024/01/11 07:34:25;;;;;;;36.13;20.58;;;;;;;1.91;100.00;99263.56;5075564;28;20667;-68
2024/01/11 07:36:52;;;;;;;34.05;20.27;;;;;;;2.01;100.00;99261.38;5067941;28;20135;-69
2024/01/11 07:39:17;;;;;;;38.10;21.77;;;;;;;2.08;100.00;99270.44;5073406;28;20420;-68
2024/01/11 07:41:45;;;;;;;36.13;22.02;;;;;;;1.88;100.00;99263.72;5073497;28;20024;-71
2024/01/11 07:44:11;;;;;;;35.28;22.40;;;;;;;1.87;100.00;99268.91;5065350;28;20048;-68
2024/01/11 07:46:36;;;;;;;34.22;21.08;;;;;;;1.97;100.00;99259.03;5064298;28;20533;-69
2024/01/11 07:49:03;;;;;;;36.58;21.38;;;;;;;2.10;100.00;99265.25;5072845;28;20188;-69
2024/01/11 07:51:28;;;;;;;36.55;20.92;;;;;;;1.75;100.00;99213.91;5093602;28;20038;-69
2024/01/11 07:53:53;;;;;;;30.60;18.70;;;;;;;2.05;100.00;99267.19;5065352;28;20585;-69
2024/01/11 07:56:22;;;;;;;32.30;19.08;;;;;;;1.64;100.00;99214.44;5057082;28;20028;-69
2024/01/11 07:58:50;;;;;;;30.00;18.80;;;;;;;1.91;100.00;99267.84;5056188;28;20020;-68
2024/01/11 08:01:17;;;;;;;32.38;19.42;;;;;;;1.98;100.00;99268.41;5058411;28;20042;-69
2024/01/11 08:03:45;;;;;;;30.98;18.27;;;;;;;2.04;100.00;99271.47;5070150;28;20032;-67
2024/01/11 08:06:10;;;;;;;27.45;17.48;;;;;;;1.95;100.00;99277.06;5075626;28;20105;-69
2024/01/11 08:08:38;;;;;;;31.13;18.60;;;;;;;1.90;100.00;99272.16;5053097;28;20028;-68
2024/01/11 08:11:07;;;;;;;32.20;18.30;;;;;;;1.91;100.00;99278.94;5071673;28;20024;-68
2024/01/11 08:13:34;;;;;;;28.92;17.65;;;;;;;1.89;100.00;99267.09;5076302;28;21235;-67
2024/01/11 08:16:04;;;;;;;25.85;16.83;;;;;;;1.69;100.00;99240.69;5068369;28;20024;-69
2024/01/11 08:18:33;;;;;;;27.08;15.80;;;;;;;1.88;100.00;99262.88;5078377;28;20032;-68
2024/01/11 08:21:01;;;;;;;29.00;16.90;;;;;;;2.00;100.00;99272.53;5064290;28;20043;-69
2024/01/11 08:23:26;;;;;;;29.83;16.80;;;;;;;2.02;100.00;99275.03;5076143;28;20110;-69
2024/01/11 08:25:52;;;;;;;30.42;18.65;;;;;;;1.98;100.00;99278.66;5058143;28;20371;-69
2024/01/11 08:28:18;;;;;;;27.75;17.33;;;;;;;2.07;100.00;99267.94;5073314;28;20038;-69
2024/01/11 08:30:44;;;;;;;27.38;17.50;;;;;;;2.15;100.00;99273.53;5076581;28;20894;-68
2024/01/11 08:33:09;;;;;;;32.25;17.48;;;;;;;2.14;100.00;99271.88;5059253;28;20597;-69
2024/01/11 08:35:35;;;;;;;27.80;16.63;;;;;;;1.75;100.00;99213.09;5080710;28;20079;-68
2024/01/11 08:38:01;;;;;;;30.65;18.15;;;;;;;2.09;100.00;99261.81;5063370;28;20044;-69
2024/01/11 08:40:26;;;;;;;27.65;17.48;;;;;;;2.04;100.00;99262.97;5090689;27;20042;-69
2024/01/11 08:42:54;;;;;;;29.25;16.98;;;;;;;2.08;100.00;99262.75;5064106;28;20336;-69
2024/01/11 08:45:20;;;;;;;28.27;17.52;;;;;;;2.04;100.00;99258.66;5057675;28;20031;-69
2024/01/11 08:47:46;;;;;;;28.60;17.60;;;;;;;2.09;100.00;99261.81;5064386;28;20039;-67
2024/01/11 08:50:15;;;;;;;28.70;17.90;;;;;;;1.75;100.00;99206.22;5076870;28;20131;-67
2024/01/11 08:52:44;;;;;;;26.85;16.88;;;;;;;2.12;100.00;99266.00;5064253;28;20047;-70
2024/01/11 08:55:09;;;;;;;26.63;15.60;;;;;;;2.12;100.00;99263.44;5061463;28;20686;-68
2024/01/11 08:57:35;;;;;;;27.00;15.02;;;;;;;2.06;100.00;99230.38;5061327;28;20115;-69
2024/01/11 09:00:02;;;;;;;25.88;15.85;;;;;;;2.29;100.00;99265.97;5061870;28;20032;-68
2024/01/11 09:02:27;;;;;;;25.73;15.93;;;;;;;2.36;100.00;99258.00;5052358;28;20028;-67
2024/01/11 09:04:53;;;;;;;26.00;15.80;;;;;;;2.46;100.00;99261.72;5061558;28;20116;-69
2024/01/11 09:07:18;;;;;;;30.75;17.00;;;;;;;2.51;100.00;99252.06;5064119;28;20739;-70
2024/01/11 09:09:44;;;;;;;24.65;15.57;;;;;;;2.57;100.00;99251.75;5063113;28;20035;-69
2024/01/11 09:12:11;;;;;;;23.08;15.02;;;;;;;2.50;100.00;99253.81;5059093;28;20368;-68
2024/01/11 09:14:39;;;;;;;21.45;12.73;;;;;;;2.52;100.00;99243.47;5078075;28;20471;-69
2024/01/11 09:17:06;;;;;;;19.27;11.48;;;;;;;2.37;100.00;99255.31;5076327;28;20111;-67
2024/01/11 09:19:34;;;;;;;19.70;11.40;;;;;;;2.52;100.00;99264.00;5071694;28;20080;-70
2024/01/11 09:22:00;;;;;;;18.60;11.15;;;;;;;2.25;100.00;99200.31;5082645;28;20032;-68
2024/01/11 09:24:25;;;;;;;18.90;10.70;;;;;;;2.19;100.00;99192.09;5070057;28;20069;-67
2024/01/11 09:26:53;;;;;;;19.50;11.93;;;;;;;2.60;100.00;99254.16;5064446;28;20493;-69
2024/01/11 09:29:18;;;;;;;19.80;12.18;;;;;;;2.47;100.00;99256.53;5056174;28;20033;-69
2024/01/11 09:31:49;;;;;;;20.17;12.45;;;;;;;2.60;100.00;99248.22;5055095;28;20112;-67
2024/01/11 09:34:14;;;;;;;20.98;12.35;;;;;;;2.73;100.00;99250.97;5065370;28;20027;-69
2024/01/11 09:36:42;;;;;;;20.15;12.27;;;;;;;2.78;100.00;99254.13;5052962;28;20028;-67
2024/01/11 09:39:08;;;;;;;20.00;11.82;;;;;;;2.80;100.00;99245.44;5060656;28;20097;-67
2024/01/11 09:41:38;;;;;;;22.00;12.57;;;;;;;2.82;100.00;99246.19;5057525;28;20024;-68
2024/01/11 09:44:05;;;;;;;21.65;12.05;;;;;;;2.92;100.00;99255.97;5082932;28;20040;-68
2024/01/11 09:46:32;;;;;;;18.25;11.18;;;;;;;2.96;100.00;99247.22;5054981;28;20024;-69
2024/01/11 09:48:58;;;;;;;18.23;11.35;;;;;;;2.88;100.00;99251.00;5059242;28;20081;-69
2024/01/11 09:51:25;;;;;;;20.00;11.30;;;;;;;2.76;100.00;99202.84;5061394;28;20031;-69
2024/01/11 09:53:51;;;;;;;18.02;10.32;;;;;;;3.04;100.00;99242.50;5072571;28;20028;-68
2024/01/11 09:56:17;;;;;;;15.57;10.05;;;;;;;3.13;100.00;99236.84;5078320;28;20485;-69
2024/01/11 09:58:48;;;;;;;19.25;10.43;;;;;;;3.22;100.00;99244.06;5058812;28;20050;-67
2024/01/11 10:01:13;;;;;;;17.73;10.27;;;;;;;3.29;100.00;99238.63;5077110;28;20059;-68
2024/01/11 10:03:41;;;;;;;16.73;9.68;;;;;;;3.38;100.00;99235.53;5070930;28;20912;-69
2024/01/11 10:06:07;;;;;;;16.30;9.95;;;;;;;3.38;100.00;99228.66;5071698;27;20032;-69
2024/01/11 10:08:32;;;;;;;16.15;9.75;;;;;;;3.39;100.00;99232.84;5077672;28;20031;-67
2024/01/11 10:10:58;;;;;;;17.80;9.60;;;;;;;3.49;100.00;99217.78;5076966;28;20068;-68
2024/01/11 10:13:33;;;;;;;17.40;11.02;;;;;;;3.57;100.00;99220.75;5056026;28;20435;-69
2024/01/11 10:16:16;;;;;;;16.15;9.55;;;;;;;3.62;100.00;99208.47;5080183;28;20054;-68
2024/01/11 10:18:42;;;;;;;15.75;9.52;;;;;;;3.63;100.00;99202.41;5062331;28;20024;-68
2024/01/11 10:21:09;;;;;;;14.90;8.82;;;;;;;3.66;100.00;99206.53;5058185;28;20439;-68
2024/01/11 10:23:35;;;;;;;15.65;9.60;;;;;;;3.76;100.00;99194.84;5077157;28;20031;-70
2024/01/11 10:26:04;;;;;;;16.40;9.57;;;;;;;3.77;100.00;99186.19;5054916;28;20044;-68
2024/01/11 10:28:29;;;;;;;19.15;10.73;;;;;;;3.91;100.00;99193.13;5068749;27;20042;-69
2024/01/11 10:30:55;;;;;;;15.63;9.50;;;;;;;3.91;100.00;99177.69;5059059;28;20024;-67
2024/01/11 10:33:21;;;;;;;16.40;10.23;;;;;;;3.85;100.00;99176.28;5055056;28;21577;-69
2024/01/11 10:35:49;;;;;;;16.83;10.60;;;;;;;3.94;100.00;99185.22;5065002;27;20123;-69
2024/01/11 10:38:17;;;;;;;17.83;10.40;;;;;;;4.02;100.00;99180.44;5072632;28;20034;-67
2024/01/11 10:40:47;;;;;;;17.13;10.25;;;;;;;4.08;100.00;99163.00;5056422;28;20043;-69
2024/01/11 10:43:19;;;;;;;19.33;11.05;;;;;;;4.17;99.82;99165.84;5086560;28;20040;-68
2024/01/11 10:45:48;;;;;;;15.75;9.43;;;;;;;4.20;98.27;99162.28;5060395;28;20106;-69
2024/01/11 10:48:14;;;;;;;17.70;10.23;;;;;;;4.28;98.80;99164.41;5071773;28;20043;-69
2024/01/11 10:50:46;;;;;;;16.98;9.85;;;;;;;4.22;98.68;99163.03;5055876;28;20026;-69
2024/01/11 10:53:45;;;;;;;15.98;10.38;;;;;;;4.27;98.40;99171.31;5054253;28;20047;-68
2024/01/11 10:56:12;;;;;;;17.02;10.18;;;;;;;4.31;98.39;99166.78;5061121;28;20024;-69
2024/01/11 10:58:40;;;;;;;15.77;9.15;;;;;;;4.31;97.89;99161.63;5074755;28;20084;-68
2024/01/11 11:01:06;;;;;;;16.38;9.63;;;;;;;4.19;97.47;99117.69;5058973;28;20138;-69
2024/01/11 11:03:33;;;;;;;16.13;9.98;;;;;;;4.55;96.75;99169.66;5056907;28;20041;-67
2024/01/11 11:06:01;;;;;;;18.48;10.48;;;;;;;4.63;96.20;99159.69;5060826;28;20675;-67
2024/01/11 11:08:27;;;;;;;14.48;9.40;;;;;;;4.52;95.88;99151.78;5060289;28;20562;-68
2024/01/11 11:10:59;;;;;;;14.15;9.18;;;;;;;4.32;97.37;99094.59;5038173;28;20838;-68
2024/01/11 11:13:25;;;;;;;16.52;9.55;;;;;;;4.56;97.08;99142.97;5047165;28;20108;-69
2024/01/11 11:15:52;;;;;;;17.42;9.85;;;;;;;4.71;97.02;99142.03;5043907;28;20075;-67
2024/01/11 11:18:23;;;;;;;15.77;10.02;;;;;;;4.77;98.47;99133.09;5069004;28;20038;-67